sensor_id;sensor_type;location;lat;lon;timestamp;P1;durP1;ratioP1;P2;durP2;ratioP2
72771;SDS011;60894;42.544;1.516;2022-07-17T00:00:38;11.55;;;5.95;;
72771;SDS011;60894;42.544;1.516;2022-07-17T00:03:07;13.82;;;6.53;;
72771;SDS011;60894;42.544;1.516;2022-07-17T00:05:34;13.83;;;6.00;;
72771;SDS011;60894;42.544;1.516;2022-07-17T00:08:01;14.68;;;6.43;;
72771;SDS011;60894;42.544;1.516;2022-07-17T00:10:28;15.30;;;6.65;;
72771;SDS011;60894;42.544;1.516;2022-07-17T00:12:55;17.38;;;6.63;;
72771;SDS011;60894;42.544;1.516;2022-07-17T00:15:23;14.57;;;6.50;;
72771;SDS011;60894;42.544;1.516;2022-07-17T00:17:50;15.47;;;6.40;;
72771;SDS011;60894;42.544;1.516;2022-07-17T00:20:17;14.27;;;6.35;;
72771;SDS011;60894;42.544;1.516;2022-07-17T00:22:44;14.15;;;6.20;;
72771;SDS011;60894;42.544;1.516;2022-07-17T00:25:12;18.70;;;9.82;;
72771;SDS011;60894;42.544;1.516;2022-07-17T00:27:39;16.65;;;8.18;;
72771;SDS011;60894;42.544;1.516;2022-07-17T00:30:06;13.33;;;6.53;;
72771;SDS011;60894;42.544;1.516;2022-07-17T00:32:35;14.25;;;6.32;;
72771;SDS011;60894;42.544;1.516;2022-07-17T00:35:02;16.70;;;6.70;;
72771;SDS011;60894;42.544;1.516;2022-07-17T00:37:29;14.35;;;7.45;;
72771;SDS011;60894;42.544;1.516;2022-07-17T00:39:56;13.88;;;6.25;;
72771;SDS011;60894;42.544;1.516;2022-07-17T00:42:23;14.90;;;6.50;;
72771;SDS011;60894;42.544;1.516;2022-07-17T00:44:50;15.35;;;6.45;;
72771;SDS011;60894;42.544;1.516;2022-07-17T00:47:18;15.32;;;6.10;;
72771;SDS011;60894;42.544;1.516;2022-07-17T00:49:47;14.20;;;6.22;;
72771;SDS011;60894;42.544;1.516;2022-07-17T00:52:16;14.32;;;6.00;;
72771;SDS011;60894;42.544;1.516;2022-07-17T00:54:44;15.27;;;5.70;;
72771;SDS011;60894;42.544;1.516;2022-07-17T00:57:14;14.82;;;6.32;;
72771;SDS011;60894;42.544;1.516;2022-07-17T00:59:41;13.50;;;5.72;;
72771;SDS011;60894;42.544;1.516;2022-07-17T01:02:09;12.68;;;5.32;;
72771;SDS011;60894;42.544;1.516;2022-07-17T01:04:39;15.27;;;5.55;;
72771;SDS011;60894;42.544;1.516;2022-07-17T01:07:07;13.87;;;5.70;;
72771;SDS011;60894;42.544;1.516;2022-07-17T01:09:35;12.32;;;5.55;;
72771;SDS011;60894;42.544;1.516;2022-07-17T01:12:02;14.73;;;5.40;;
72771;SDS011;60894;42.544;1.516;2022-07-17T01:14:29;12.15;;;5.90;;
72771;SDS011;60894;42.544;1.516;2022-07-17T01:16:57;14.43;;;5.15;;
72771;SDS011;60894;42.544;1.516;2022-07-17T01:19:24;12.43;;;4.90;;
72771;SDS011;60894;42.544;1.516;2022-07-17T01:21:53;10.95;;;5.00;;
72771;SDS011;60894;42.544;1.516;2022-07-17T01:24:19;11.70;;;5.15;;
72771;SDS011;60894;42.544;1.516;2022-07-17T01:26:47;13.15;;;5.22;;
72771;SDS011;60894;42.544;1.516;2022-07-17T01:29:15;13.23;;;5.53;;
72771;SDS011;60894;42.544;1.516;2022-07-17T01:31:43;14.53;;;5.33;;
72771;SDS011;60894;42.544;1.516;2022-07-17T01:34:11;12.00;;;4.95;;
72771;SDS011;60894;42.544;1.516;2022-07-17T01:36:39;10.57;;;5.07;;
72771;SDS011;60894;42.544;1.516;2022-07-17T01:39:07;13.60;;;4.82;;
72771;SDS011;60894;42.544;1.516;2022-07-17T01:41:34;11.38;;;5.20;;
72771;SDS011;60894;42.544;1.516;2022-07-17T01:44:01;12.30;;;5.30;;
72771;SDS011;60894;42.544;1.516;2022-07-17T01:46:29;12.27;;;5.10;;
72771;SDS011;60894;42.544;1.516;2022-07-17T01:48:56;11.43;;;5.10;;
72771;SDS011;60894;42.544;1.516;2022-07-17T01:51:23;12.82;;;4.97;;
72771;SDS011;60894;42.544;1.516;2022-07-17T01:53:50;13.63;;;5.28;;
72771;SDS011;60894;42.544;1.516;2022-07-17T01:56:18;11.60;;;5.30;;
72771;SDS011;60894;42.544;1.516;2022-07-17T01:58:45;13.65;;;5.00;;
72771;SDS011;60894;42.544;1.516;2022-07-17T02:01:12;13.73;;;5.38;;
72771;SDS011;60894;42.544;1.516;2022-07-17T02:03:38;10.23;;;4.60;;
72771;SDS011;60894;42.544;1.516;2022-07-17T02:06:05;15.98;;;4.97;;
72771;SDS011;60894;42.544;1.516;2022-07-17T02:08:35;14.90;;;4.90;;
72771;SDS011;60894;42.544;1.516;2022-07-17T02:11:01;13.55;;;4.97;;
72771;SDS011;60894;42.544;1.516;2022-07-17T02:13:29;12.50;;;4.93;;
72771;SDS011;60894;42.544;1.516;2022-07-17T02:15:56;11.07;;;4.75;;
72771;SDS011;60894;42.544;1.516;2022-07-17T02:18:23;13.80;;;5.05;;
72771;SDS011;60894;42.544;1.516;2022-07-17T02:20:50;13.70;;;4.73;;
72771;SDS011;60894;42.544;1.516;2022-07-17T02:23:17;14.00;;;4.80;;
72771;SDS011;60894;42.544;1.516;2022-07-17T02:25:43;10.10;;;4.75;;
72771;SDS011;60894;42.544;1.516;2022-07-17T02:28:10;16.23;;;4.72;;
72771;SDS011;60894;42.544;1.516;2022-07-17T02:30:38;12.50;;;5.00;;
72771;SDS011;60894;42.544;1.516;2022-07-17T02:33:05;13.90;;;4.90;;
72771;SDS011;60894;42.544;1.516;2022-07-17T02:35:32;14.40;;;4.97;;
72771;SDS011;60894;42.544;1.516;2022-07-17T02:38:00;12.90;;;5.32;;
72771;SDS011;60894;42.544;1.516;2022-07-17T02:40:27;11.18;;;4.90;;
72771;SDS011;60894;42.544;1.516;2022-07-17T02:42:53;9.93;;;5.13;;
72771;SDS011;60894;42.544;1.516;2022-07-17T02:45:20;11.40;;;4.90;;
72771;SDS011;60894;42.544;1.516;2022-07-17T02:47:51;13.52;;;4.80;;
72771;SDS011;60894;42.544;1.516;2022-07-17T02:50:18;14.30;;;5.20;;
72771;SDS011;60894;42.544;1.516;2022-07-17T02:52:45;12.38;;;4.75;;
72771;SDS011;60894;42.544;1.516;2022-07-17T02:55:13;14.65;;;4.93;;
72771;SDS011;60894;42.544;1.516;2022-07-17T02:57:40;13.67;;;4.97;;
72771;SDS011;60894;42.544;1.516;2022-07-17T03:00:08;16.25;;;6.05;;
72771;SDS011;60894;42.544;1.516;2022-07-17T03:02:37;12.82;;;5.20;;
72771;SDS011;60894;42.544;1.516;2022-07-17T03:05:06;15.35;;;5.00;;
72771;SDS011;60894;42.544;1.516;2022-07-17T03:07:33;12.10;;;4.38;;
72771;SDS011;60894;42.544;1.516;2022-07-17T03:10:00;11.00;;;4.67;;
72771;SDS011;60894;42.544;1.516;2022-07-17T03:12:27;10.75;;;4.60;;
72771;SDS011;60894;42.544;1.516;2022-07-17T03:14:54;13.57;;;4.57;;
72771;SDS011;60894;42.544;1.516;2022-07-17T03:17:20;14.15;;;4.65;;
72771;SDS011;60894;42.544;1.516;2022-07-17T03:19:47;12.32;;;4.68;;
72771;SDS011;60894;42.544;1.516;2022-07-17T03:22:15;9.50;;;4.27;;
72771;SDS011;60894;42.544;1.516;2022-07-17T03:24:42;11.18;;;4.28;;
72771;SDS011;60894;42.544;1.516;2022-07-17T03:27:09;13.70;;;4.50;;
72771;SDS011;60894;42.544;1.516;2022-07-17T03:29:36;9.13;;;4.07;;
72771;SDS011;60894;42.544;1.516;2022-07-17T03:32:03;11.85;;;4.20;;
72771;SDS011;60894;42.544;1.516;2022-07-17T03:34:30;10.77;;;4.03;;
72771;SDS011;60894;42.544;1.516;2022-07-17T03:36:57;13.02;;;4.18;;
72771;SDS011;60894;42.544;1.516;2022-07-17T03:39:26;12.10;;;3.72;;
72771;SDS011;60894;42.544;1.516;2022-07-17T03:41:52;9.98;;;3.95;;
72771;SDS011;60894;42.544;1.516;2022-07-17T03:44:19;12.35;;;4.22;;
72771;SDS011;60894;42.544;1.516;2022-07-17T03:46:46;9.93;;;4.30;;
72771;SDS011;60894;42.544;1.516;2022-07-17T03:49:13;10.93;;;3.95;;
72771;SDS011;60894;42.544;1.516;2022-07-17T03:51:40;8.45;;;3.75;;
72771;SDS011;60894;42.544;1.516;2022-07-17T03:54:07;11.13;;;3.97;;
72771;SDS011;60894;42.544;1.516;2022-07-17T03:56:35;8.73;;;3.33;;
72771;SDS011;60894;42.544;1.516;2022-07-17T03:59:02;12.73;;;3.73;;
72771;SDS011;60894;42.544;1.516;2022-07-17T04:01:29;11.85;;;4.05;;
72771;SDS011;60894;42.544;1.516;2022-07-17T04:03:55;10.95;;;3.88;;
72771;SDS011;60894;42.544;1.516;2022-07-17T04:06:22;11.05;;;3.90;;
72771;SDS011;60894;42.544;1.516;2022-07-17T04:08:49;10.20;;;3.75;;
72771;SDS011;60894;42.544;1.516;2022-07-17T04:11:16;10.53;;;3.80;;
72771;SDS011;60894;42.544;1.516;2022-07-17T04:13:46;10.10;;;3.75;;
72771;SDS011;60894;42.544;1.516;2022-07-17T04:16:13;10.07;;;4.07;;
72771;SDS011;60894;42.544;1.516;2022-07-17T04:18:40;10.75;;;4.00;;
72771;SDS011;60894;42.544;1.516;2022-07-17T04:21:07;9.35;;;3.92;;
72771;SDS011;60894;42.544;1.516;2022-07-17T04:23:36;9.27;;;3.77;;
72771;SDS011;60894;42.544;1.516;2022-07-17T04:26:03;11.13;;;3.72;;
72771;SDS011;60894;42.544;1.516;2022-07-17T04:28:32;13.10;;;3.60;;
72771;SDS011;60894;42.544;1.516;2022-07-17T04:31:01;11.27;;;4.25;;
72771;SDS011;60894;42.544;1.516;2022-07-17T04:33:28;11.07;;;3.88;;
72771;SDS011;60894;42.544;1.516;2022-07-17T04:35:54;8.13;;;3.50;;
72771;SDS011;60894;42.544;1.516;2022-07-17T04:38:21;8.75;;;3.72;;
72771;SDS011;60894;42.544;1.516;2022-07-17T04:40:48;11.10;;;3.85;;
72771;SDS011;60894;42.544;1.516;2022-07-17T04:43:15;11.20;;;4.00;;
72771;SDS011;60894;42.544;1.516;2022-07-17T04:45:42;8.98;;;3.38;;
72771;SDS011;60894;42.544;1.516;2022-07-17T04:48:10;10.13;;;4.20;;
72771;SDS011;60894;42.544;1.516;2022-07-17T04:50:37;10.90;;;3.78;;
72771;SDS011;60894;42.544;1.516;2022-07-17T04:53:03;10.65;;;3.75;;
72771;SDS011;60894;42.544;1.516;2022-07-17T04:55:30;10.77;;;3.90;;
72771;SDS011;60894;42.544;1.516;2022-07-17T04:57:57;8.98;;;3.78;;
72771;SDS011;60894;42.544;1.516;2022-07-17T05:00:24;10.60;;;4.00;;
72771;SDS011;60894;42.544;1.516;2022-07-17T05:02:52;11.13;;;3.80;;
72771;SDS011;60894;42.544;1.516;2022-07-17T05:05:20;11.38;;;4.10;;
72771;SDS011;60894;42.544;1.516;2022-07-17T05:07:47;10.27;;;3.60;;
72771;SDS011;60894;42.544;1.516;2022-07-17T05:10:16;11.55;;;3.63;;
72771;SDS011;60894;42.544;1.516;2022-07-17T05:12:43;12.40;;;4.03;;
72771;SDS011;60894;42.544;1.516;2022-07-17T05:15:09;10.48;;;3.60;;
72771;SDS011;60894;42.544;1.516;2022-07-17T05:17:36;10.65;;;3.67;;
72771;SDS011;60894;42.544;1.516;2022-07-17T05:20:04;13.48;;;4.00;;
72771;SDS011;60894;42.544;1.516;2022-07-17T05:22:34;10.13;;;3.60;;
72771;SDS011;60894;42.544;1.516;2022-07-17T05:25:01;10.00;;;3.50;;
72771;SDS011;60894;42.544;1.516;2022-07-17T05:27:28;11.73;;;3.63;;
72771;SDS011;60894;42.544;1.516;2022-07-17T05:29:55;10.35;;;3.53;;
72771;SDS011;60894;42.544;1.516;2022-07-17T05:32:22;9.02;;;3.42;;
72771;SDS011;60894;42.544;1.516;2022-07-17T05:34:49;9.45;;;3.72;;
72771;SDS011;60894;42.544;1.516;2022-07-17T05:37:15;10.93;;;3.53;;
72771;SDS011;60894;42.544;1.516;2022-07-17T05:39:44;9.65;;;3.70;;
72771;SDS011;60894;42.544;1.516;2022-07-17T05:42:10;8.25;;;3.47;;
72771;SDS011;60894;42.544;1.516;2022-07-17T05:44:37;8.73;;;3.60;;
72771;SDS011;60894;42.544;1.516;2022-07-17T05:47:04;12.40;;;3.75;;
72771;SDS011;60894;42.544;1.516;2022-07-17T05:49:31;13.20;;;3.83;;
72771;SDS011;60894;42.544;1.516;2022-07-17T05:51:58;10.73;;;3.45;;
72771;SDS011;60894;42.544;1.516;2022-07-17T05:54:24;9.23;;;3.30;;
72771;SDS011;60894;42.544;1.516;2022-07-17T05:56:53;11.18;;;3.75;;
72771;SDS011;60894;42.544;1.516;2022-07-17T05:59:19;9.88;;;3.50;;
72771;SDS011;60894;42.544;1.516;2022-07-17T06:01:46;8.90;;;3.60;;
72771;SDS011;60894;42.544;1.516;2022-07-17T06:04:13;10.25;;;3.42;;
72771;SDS011;60894;42.544;1.516;2022-07-17T06:06:40;12.05;;;3.50;;
72771;SDS011;60894;42.544;1.516;2022-07-17T06:09:07;12.75;;;3.92;;
72771;SDS011;60894;42.544;1.516;2022-07-17T06:11:33;8.05;;;3.17;;
72771;SDS011;60894;42.544;1.516;2022-07-17T06:14:02;9.13;;;3.47;;
72771;SDS011;60894;42.544;1.516;2022-07-17T06:16:28;9.20;;;3.40;;
72771;SDS011;60894;42.544;1.516;2022-07-17T06:18:55;8.98;;;2.92;;
72771;SDS011;60894;42.544;1.516;2022-07-17T06:21:22;9.23;;;3.20;;
72771;SDS011;60894;42.544;1.516;2022-07-17T06:23:49;8.05;;;3.10;;
72771;SDS011;60894;42.544;1.516;2022-07-17T06:26:16;9.00;;;2.97;;
72771;SDS011;60894;42.544;1.516;2022-07-17T06:28:42;8.75;;;2.95;;
72771;SDS011;60894;42.544;1.516;2022-07-17T06:31:11;7.18;;;3.08;;
72771;SDS011;60894;42.544;1.516;2022-07-17T06:33:37;9.57;;;2.90;;
72771;SDS011;60894;42.544;1.516;2022-07-17T06:36:04;9.65;;;2.95;;
72771;SDS011;60894;42.544;1.516;2022-07-17T06:38:31;9.60;;;3.17;;
72771;SDS011;60894;42.544;1.516;2022-07-17T06:40:58;8.32;;;3.60;;
72771;SDS011;60894;42.544;1.516;2022-07-17T06:43:25;12.88;;;3.33;;
72771;SDS011;60894;42.544;1.516;2022-07-17T06:45:53;9.30;;;3.00;;
72771;SDS011;60894;42.544;1.516;2022-07-17T06:48:22;8.15;;;3.20;;
72771;SDS011;60894;42.544;1.516;2022-07-17T06:50:49;9.27;;;3.13;;
72771;SDS011;60894;42.544;1.516;2022-07-17T06:53:16;10.07;;;2.53;;
72771;SDS011;60894;42.544;1.516;2022-07-17T06:55:43;7.65;;;3.10;;
72771;SDS011;60894;42.544;1.516;2022-07-17T06:58:09;9.68;;;3.05;;
72771;SDS011;60894;42.544;1.516;2022-07-17T07:00:37;8.00;;;3.10;;
72771;SDS011;60894;42.544;1.516;2022-07-17T07:03:04;10.10;;;3.27;;
72771;SDS011;60894;42.544;1.516;2022-07-17T07:05:32;8.55;;;3.00;;
72771;SDS011;60894;42.544;1.516;2022-07-17T07:07:59;10.00;;;2.75;;
72771;SDS011;60894;42.544;1.516;2022-07-17T07:10:26;7.55;;;2.90;;
72771;SDS011;60894;42.544;1.516;2022-07-17T07:12:53;12.65;;;3.15;;
72771;SDS011;60894;42.544;1.516;2022-07-17T07:15:20;7.43;;;2.90;;
72771;SDS011;60894;42.544;1.516;2022-07-17T07:17:46;8.77;;;3.03;;
72771;SDS011;60894;42.544;1.516;2022-07-17T07:20:14;7.57;;;2.80;;
72771;SDS011;60894;42.544;1.516;2022-07-17T07:22:42;7.97;;;3.13;;
72771;SDS011;60894;42.544;1.516;2022-07-17T07:25:09;10.50;;;3.00;;
72771;SDS011;60894;42.544;1.516;2022-07-17T07:27:36;9.20;;;2.87;;
72771;SDS011;60894;42.544;1.516;2022-07-17T07:30:03;7.25;;;2.80;;
72771;SDS011;60894;42.544;1.516;2022-07-17T07:32:34;6.00;;;2.45;;
72771;SDS011;60894;42.544;1.516;2022-07-17T07:35:02;10.35;;;3.90;;
72771;SDS011;60894;42.544;1.516;2022-07-17T07:37:29;11.38;;;3.90;;
72771;SDS011;60894;42.544;1.516;2022-07-17T07:39:57;8.93;;;3.20;;
72771;SDS011;60894;42.544;1.516;2022-07-17T07:42:24;7.78;;;3.35;;
72771;SDS011;60894;42.544;1.516;2022-07-17T07:44:51;10.85;;;3.20;;
72771;SDS011;60894;42.544;1.516;2022-07-17T07:47:18;9.77;;;3.00;;
72771;SDS011;60894;42.544;1.516;2022-07-17T07:49:45;10.07;;;3.22;;
72771;SDS011;60894;42.544;1.516;2022-07-17T07:52:12;9.13;;;3.07;;
72771;SDS011;60894;42.544;1.516;2022-07-17T07:54:39;10.20;;;3.50;;
72771;SDS011;60894;42.544;1.516;2022-07-17T07:57:07;9.18;;;3.63;;
72771;SDS011;60894;42.544;1.516;2022-07-17T07:59:34;9.10;;;3.20;;
72771;SDS011;60894;42.544;1.516;2022-07-17T08:02:02;9.05;;;3.22;;
72771;SDS011;60894;42.544;1.516;2022-07-17T08:04:29;9.30;;;3.97;;
72771;SDS011;60894;42.544;1.516;2022-07-17T08:06:56;9.02;;;3.50;;
72771;SDS011;60894;42.544;1.516;2022-07-17T08:09:23;10.68;;;3.20;;
72771;SDS011;60894;42.544;1.516;2022-07-17T08:11:49;11.80;;;3.40;;
72771;SDS011;60894;42.544;1.516;2022-07-17T08:14:18;8.60;;;3.17;;
72771;SDS011;60894;42.544;1.516;2022-07-17T08:16:44;7.20;;;3.60;;
72771;SDS011;60894;42.544;1.516;2022-07-17T08:19:11;9.93;;;3.85;;
72771;SDS011;60894;42.544;1.516;2022-07-17T08:21:38;14.88;;;4.15;;
72771;SDS011;60894;42.544;1.516;2022-07-17T08:24:05;8.57;;;3.70;;
72771;SDS011;60894;42.544;1.516;2022-07-17T08:26:32;12.38;;;3.83;;
72771;SDS011;60894;42.544;1.516;2022-07-17T08:28:59;9.13;;;3.40;;
72771;SDS011;60894;42.544;1.516;2022-07-17T08:31:27;8.65;;;3.63;;
72771;SDS011;60894;42.544;1.516;2022-07-17T08:33:54;7.28;;;3.50;;
72771;SDS011;60894;42.544;1.516;2022-07-17T08:36:21;8.90;;;3.55;;
72771;SDS011;60894;42.544;1.516;2022-07-17T08:38:48;10.57;;;3.60;;
72771;SDS011;60894;42.544;1.516;2022-07-17T08:41:15;10.10;;;3.90;;
72771;SDS011;60894;42.544;1.516;2022-07-17T08:43:46;13.13;;;4.43;;
72771;SDS011;60894;42.544;1.516;2022-07-17T08:46:13;11.90;;;4.25;;
72771;SDS011;60894;42.544;1.516;2022-07-17T08:48:44;11.65;;;3.70;;
72771;SDS011;60894;42.544;1.516;2022-07-17T08:51:12;10.30;;;4.07;;
72771;SDS011;60894;42.544;1.516;2022-07-17T08:53:41;10.87;;;4.63;;
72771;SDS011;60894;42.544;1.516;2022-07-17T08:56:09;12.65;;;5.10;;
72771;SDS011;60894;42.544;1.516;2022-07-17T08:58:38;12.43;;;5.75;;
72771;SDS011;60894;42.544;1.516;2022-07-17T09:01:05;13.15;;;6.28;;
72771;SDS011;60894;42.544;1.516;2022-07-17T09:03:32;12.57;;;6.18;;
72771;SDS011;60894;42.544;1.516;2022-07-17T09:06:00;11.10;;;5.70;;
72771;SDS011;60894;42.544;1.516;2022-07-17T09:08:27;9.98;;;5.30;;
72771;SDS011;60894;42.544;1.516;2022-07-17T09:10:57;12.60;;;6.55;;
72771;SDS011;60894;42.544;1.516;2022-07-17T09:13:25;12.85;;;6.78;;
72771;SDS011;60894;42.544;1.516;2022-07-17T09:15:55;11.10;;;6.40;;
72771;SDS011;60894;42.544;1.516;2022-07-17T09:18:23;12.13;;;6.83;;
72771;SDS011;60894;42.544;1.516;2022-07-17T09:20:51;13.30;;;7.78;;
72771;SDS011;60894;42.544;1.516;2022-07-17T09:23:22;12.52;;;6.97;;
72771;SDS011;60894;42.544;1.516;2022-07-17T09:25:50;13.95;;;7.20;;
72771;SDS011;60894;42.544;1.516;2022-07-17T09:28:18;10.57;;;6.70;;
72771;SDS011;60894;42.544;1.516;2022-07-17T09:30:47;12.10;;;6.93;;
72771;SDS011;60894;42.544;1.516;2022-07-17T09:33:16;10.63;;;6.85;;
72771;SDS011;60894;42.544;1.516;2022-07-17T09:35:48;12.05;;;6.80;;
72771;SDS011;60894;42.544;1.516;2022-07-17T09:38:27;13.02;;;7.35;;
72771;SDS011;60894;42.544;1.516;2022-07-17T09:41:03;12.80;;;7.50;;
72771;SDS011;60894;42.544;1.516;2022-07-17T09:43:43;11.57;;;6.80;;
72771;SDS011;60894;42.544;1.516;2022-07-17T09:46:12;16.17;;;6.47;;
72771;SDS011;60894;42.544;1.516;2022-07-17T09:48:41;13.45;;;6.93;;
72771;SDS011;60894;42.544;1.516;2022-07-17T09:51:16;11.90;;;7.07;;
72771;SDS011;60894;42.544;1.516;2022-07-17T09:53:47;11.15;;;6.80;;
72771;SDS011;60894;42.544;1.516;2022-07-17T09:56:15;10.60;;;6.63;;
72771;SDS011;60894;42.544;1.516;2022-07-17T09:58:44;10.15;;;6.00;;
72771;SDS011;60894;42.544;1.516;2022-07-17T10:01:14;11.45;;;6.10;;
72771;SDS011;60894;42.544;1.516;2022-07-17T10:03:42;14.40;;;6.15;;
72771;SDS011;60894;42.544;1.516;2022-07-17T10:06:09;10.98;;;6.40;;
72771;SDS011;60894;42.544;1.516;2022-07-17T10:08:37;12.07;;;6.73;;
72771;SDS011;60894;42.544;1.516;2022-07-17T10:11:06;10.15;;;5.97;;
72771;SDS011;60894;42.544;1.516;2022-07-17T10:13:35;13.90;;;6.25;;
72771;SDS011;60894;42.544;1.516;2022-07-17T10:16:05;10.27;;;6.20;;
72771;SDS011;60894;42.544;1.516;2022-07-17T10:18:35;12.13;;;5.70;;
72771;SDS011;60894;42.544;1.516;2022-07-17T10:21:09;11.40;;;6.40;;
72771;SDS011;60894;42.544;1.516;2022-07-17T10:23:39;12.55;;;6.60;;
72771;SDS011;60894;42.544;1.516;2022-07-17T10:26:08;14.93;;;5.90;;
72771;SDS011;60894;42.544;1.516;2022-07-17T10:28:39;11.23;;;5.93;;
72771;SDS011;60894;42.544;1.516;2022-07-17T10:31:07;12.83;;;5.60;;
72771;SDS011;60894;42.544;1.516;2022-07-17T10:33:34;10.70;;;5.57;;
72771;SDS011;60894;42.544;1.516;2022-07-17T10:36:02;13.00;;;5.95;;
72771;SDS011;60894;42.544;1.516;2022-07-17T10:38:29;11.68;;;5.60;;
72771;SDS011;60894;42.544;1.516;2022-07-17T10:41:08;10.43;;;5.60;;
72771;SDS011;60894;42.544;1.516;2022-07-17T10:43:41;11.47;;;5.20;;
72771;SDS011;60894;42.544;1.516;2022-07-17T10:46:08;8.67;;;5.40;;
72771;SDS011;60894;42.544;1.516;2022-07-17T10:48:38;8.48;;;5.28;;
72771;SDS011;60894;42.544;1.516;2022-07-17T10:51:06;12.48;;;5.13;;
72771;SDS011;60894;42.544;1.516;2022-07-17T10:53:33;10.25;;;5.38;;
72771;SDS011;60894;42.544;1.516;2022-07-17T10:56:02;11.45;;;5.60;;
72771;SDS011;60894;42.544;1.516;2022-07-17T10:58:32;9.90;;;5.33;;
72771;SDS011;60894;42.544;1.516;2022-07-17T11:01:05;12.90;;;5.10;;
72771;SDS011;60894;42.544;1.516;2022-07-17T11:03:36;9.40;;;5.07;;
72771;SDS011;60894;42.544;1.516;2022-07-17T11:06:08;11.38;;;5.90;;
72771;SDS011;60894;42.544;1.516;2022-07-17T11:08:39;11.63;;;5.70;;
72771;SDS011;60894;42.544;1.516;2022-07-17T11:11:07;11.70;;;5.97;;
72771;SDS011;60894;42.544;1.516;2022-07-17T11:13:35;12.97;;;5.93;;
72771;SDS011;60894;42.544;1.516;2022-07-17T11:16:02;11.97;;;5.47;;
72771;SDS011;60894;42.544;1.516;2022-07-17T11:18:30;10.05;;;5.10;;
72771;SDS011;60894;42.544;1.516;2022-07-17T11:20:58;11.18;;;5.82;;
72771;SDS011;60894;42.544;1.516;2022-07-17T11:23:26;11.40;;;5.22;;
72771;SDS011;60894;42.544;1.516;2022-07-17T11:25:56;13.98;;;5.30;;
72771;SDS011;60894;42.544;1.516;2022-07-17T11:28:31;13.20;;;5.17;;
72771;SDS011;60894;42.544;1.516;2022-07-17T11:31:02;13.07;;;5.17;;
72771;SDS011;60894;42.544;1.516;2022-07-17T11:33:31;13.15;;;5.05;;
72771;SDS011;60894;42.544;1.516;2022-07-17T11:35:58;14.05;;;5.80;;
72771;SDS011;60894;42.544;1.516;2022-07-17T11:38:25;12.38;;;4.88;;
72771;SDS011;60894;42.544;1.516;2022-07-17T11:40:54;12.90;;;4.90;;
72771;SDS011;60894;42.544;1.516;2022-07-17T11:43:21;11.90;;;5.00;;
72771;SDS011;60894;42.544;1.516;2022-07-17T11:45:49;12.40;;;5.17;;
72771;SDS011;60894;42.544;1.516;2022-07-17T11:48:17;13.82;;;5.22;;
72771;SDS011;60894;42.544;1.516;2022-07-17T11:50:54;14.38;;;4.60;;
72771;SDS011;60894;42.544;1.516;2022-07-17T11:53:30;17.15;;;4.85;;
72771;SDS011;60894;42.544;1.516;2022-07-17T11:55:58;13.18;;;4.47;;
72771;SDS011;60894;42.544;1.516;2022-07-17T11:58:25;13.10;;;4.67;;
72771;SDS011;60894;42.544;1.516;2022-07-17T12:00:59;15.60;;;4.37;;
72771;SDS011;60894;42.544;1.516;2022-07-17T12:03:29;13.55;;;3.80;;
72771;SDS011;60894;42.544;1.516;2022-07-17T12:05:56;17.42;;;4.22;;
72771;SDS011;60894;42.544;1.516;2022-07-17T12:08:23;12.05;;;3.92;;
72771;SDS011;60894;42.544;1.516;2022-07-17T12:10:58;14.95;;;4.68;;
72771;SDS011;60894;42.544;1.516;2022-07-17T12:13:33;15.63;;;3.90;;
72771;SDS011;60894;42.544;1.516;2022-07-17T12:16:17;13.70;;;4.07;;
72771;SDS011;60894;42.544;1.516;2022-07-17T12:18:55;14.88;;;4.20;;
72771;SDS011;60894;42.544;1.516;2022-07-17T12:21:28;11.63;;;4.10;;
72771;SDS011;60894;42.544;1.516;2022-07-17T12:23:56;15.38;;;4.38;;
72771;SDS011;60894;42.544;1.516;2022-07-17T12:26:25;15.25;;;4.70;;
72771;SDS011;60894;42.544;1.516;2022-07-17T12:28:52;17.60;;;4.83;;
72771;SDS011;60894;42.544;1.516;2022-07-17T12:31:19;11.17;;;3.90;;
72771;SDS011;60894;42.544;1.516;2022-07-17T12:33:48;14.52;;;4.63;;
72771;SDS011;60894;42.544;1.516;2022-07-17T12:36:19;16.48;;;5.65;;
72771;SDS011;60894;42.544;1.516;2022-07-17T12:38:46;14.30;;;4.45;;
72771;SDS011;60894;42.544;1.516;2022-07-17T12:41:14;17.13;;;4.60;;
72771;SDS011;60894;42.544;1.516;2022-07-17T12:43:41;15.05;;;4.72;;
72771;SDS011;60894;42.544;1.516;2022-07-17T12:46:08;14.30;;;4.90;;
72771;SDS011;60894;42.544;1.516;2022-07-17T12:48:35;13.20;;;4.53;;
72771;SDS011;60894;42.544;1.516;2022-07-17T12:51:04;14.82;;;4.95;;
72771;SDS011;60894;42.544;1.516;2022-07-17T12:53:32;14.40;;;5.18;;
72771;SDS011;60894;42.544;1.516;2022-07-17T12:56:00;11.85;;;4.80;;
72771;SDS011;60894;42.544;1.516;2022-07-17T12:58:27;12.75;;;4.50;;
72771;SDS011;60894;42.544;1.516;2022-07-17T13:00:54;10.82;;;4.22;;
72771;SDS011;60894;42.544;1.516;2022-07-17T13:03:21;13.17;;;5.10;;
72771;SDS011;60894;42.544;1.516;2022-07-17T13:05:48;22.03;;;4.80;;
72771;SDS011;60894;42.544;1.516;2022-07-17T13:08:15;15.38;;;4.53;;
72771;SDS011;60894;42.544;1.516;2022-07-17T13:10:43;13.10;;;4.70;;
72771;SDS011;60894;42.544;1.516;2022-07-17T13:13:10;12.52;;;4.80;;
72771;SDS011;60894;42.544;1.516;2022-07-17T13:15:37;14.20;;;4.80;;
72771;SDS011;60894;42.544;1.516;2022-07-17T13:18:04;13.25;;;4.70;;
72771;SDS011;60894;42.544;1.516;2022-07-17T13:20:31;14.20;;;4.90;;
72771;SDS011;60894;42.544;1.516;2022-07-17T13:22:59;15.23;;;4.40;;
72771;SDS011;60894;42.544;1.516;2022-07-17T13:25:26;13.48;;;4.70;;
72771;SDS011;60894;42.544;1.516;2022-07-17T13:27:54;16.38;;;5.28;;
72771;SDS011;60894;42.544;1.516;2022-07-17T13:30:21;14.57;;;5.35;;
72771;SDS011;60894;42.544;1.516;2022-07-17T13:32:47;13.00;;;5.38;;
72771;SDS011;60894;42.544;1.516;2022-07-17T13:35:14;13.60;;;4.88;;
72771;SDS011;60894;42.544;1.516;2022-07-17T13:37:42;12.03;;;4.77;;
72771;SDS011;60894;42.544;1.516;2022-07-17T13:40:10;14.33;;;5.20;;
72771;SDS011;60894;42.544;1.516;2022-07-17T13:42:37;14.60;;;5.07;;
72771;SDS011;60894;42.544;1.516;2022-07-17T13:45:06;14.15;;;4.40;;
72771;SDS011;60894;42.544;1.516;2022-07-17T13:47:34;11.45;;;5.10;;
72771;SDS011;60894;42.544;1.516;2022-07-17T13:50:00;12.05;;;5.07;;
72771;SDS011;60894;42.544;1.516;2022-07-17T13:52:27;12.70;;;4.33;;
72771;SDS011;60894;42.544;1.516;2022-07-17T13:54:57;10.87;;;4.27;;
72771;SDS011;60894;42.544;1.516;2022-07-17T13:57:24;10.85;;;4.70;;
72771;SDS011;60894;42.544;1.516;2022-07-17T13:59:51;9.88;;;4.32;;
72771;SDS011;60894;42.544;1.516;2022-07-17T14:02:21;15.00;;;4.57;;
72771;SDS011;60894;42.544;1.516;2022-07-17T14:04:47;15.20;;;4.82;;
72771;SDS011;60894;42.544;1.516;2022-07-17T14:07:14;11.00;;;4.82;;
72771;SDS011;60894;42.544;1.516;2022-07-17T14:09:41;10.63;;;4.17;;
72771;SDS011;60894;42.544;1.516;2022-07-17T14:12:08;14.55;;;4.40;;
72771;SDS011;60894;42.544;1.516;2022-07-17T14:14:35;13.40;;;4.70;;
72771;SDS011;60894;42.544;1.516;2022-07-17T14:17:02;17.52;;;7.72;;
72771;SDS011;60894;42.544;1.516;2022-07-17T14:19:31;14.70;;;4.75;;
72771;SDS011;60894;42.544;1.516;2022-07-17T14:22:01;11.73;;;4.70;;
72771;SDS011;60894;42.544;1.516;2022-07-17T14:24:28;11.40;;;4.60;;
72771;SDS011;60894;42.544;1.516;2022-07-17T14:26:55;11.88;;;4.70;;
72771;SDS011;60894;42.544;1.516;2022-07-17T14:29:22;11.90;;;4.43;;
72771;SDS011;60894;42.544;1.516;2022-07-17T14:31:49;10.93;;;4.55;;
72771;SDS011;60894;42.544;1.516;2022-07-17T14:34:16;11.30;;;4.32;;
72771;SDS011;60894;42.544;1.516;2022-07-17T14:36:44;11.13;;;4.72;;
72771;SDS011;60894;42.544;1.516;2022-07-17T14:39:11;12.07;;;4.00;;
72771;SDS011;60894;42.544;1.516;2022-07-17T14:41:38;13.30;;;4.60;;